sensor_id;sensor_type;location;lat;lon;timestamp;P1;durP1;ratioP1;P2;durP2;ratioP2
6282;SDS011;3174;53.486;9.568;2022-12-18T00:01:25;12.37;;;5.73;;
6282;SDS011;3174;53.486;9.568;2022-12-18T00:03:56;12.23;;;6.63;;
6282;SDS011;3174;53.486;9.568;2022-12-18T00:06:25;13.83;;;7.63;;
6282;SDS011;3174;53.486;9.568;2022-12-18T00:08:55;14.43;;;6.13;;
6282;SDS011;3174;53.486;9.568;2022-12-18T00:11:24;13.67;;;6.60;;
6282;SDS011;3174;53.486;9.568;2022-12-18T00:13:53;11.47;;;6.43;;
6282;SDS011;3174;53.486;9.568;2022-12-18T00:16:23;12.80;;;6.13;;
6282;SDS011;3174;53.486;9.568;2022-12-18T00:18:54;13.27;;;6.50;;
6282;SDS011;3174;53.486;9.568;2022-12-18T00:21:24;7.10;;;4.23;;
6282;SDS011;3174;53.486;9.568;2022-12-18T00:23:53;10.57;;;5.70;;
6282;SDS011;3174;53.486;9.568;2022-12-18T00:26:21;8.50;;;5.20;;
6282;SDS011;3174;53.486;9.568;2022-12-18T00:28:50;10.20;;;5.40;;
6282;SDS011;3174;53.486;9.568;2022-12-18T00:31:19;8.13;;;5.53;;
6282;SDS011;3174;53.486;9.568;2022-12-18T00:33:49;13.17;;;6.10;;
6282;SDS011;3174;53.486;9.568;2022-12-18T00:36:22;15.40;;;5.83;;
6282;SDS011;3174;53.486;9.568;2022-12-18T00:38:52;11.07;;;5.60;;
6282;SDS011;3174;53.486;9.568;2022-12-18T00:41:21;11.70;;;6.50;;
6282;SDS011;3174;53.486;9.568;2022-12-18T00:44:03;13.67;;;6.30;;
6282;SDS011;3174;53.486;9.568;2022-12-18T00:46:32;8.17;;;5.10;;
6282;SDS011;3174;53.486;9.568;2022-12-18T00:49:00;9.67;;;5.33;;
6282;SDS011;3174;53.486;9.568;2022-12-18T00:51:30;9.83;;;6.10;;
6282;SDS011;3174;53.486;9.568;2022-12-18T00:53:58;9.30;;;5.60;;
6282;SDS011;3174;53.486;9.568;2022-12-18T00:56:26;11.50;;;6.43;;
6282;SDS011;3174;53.486;9.568;2022-12-18T00:58:54;10.20;;;5.50;;
6282;SDS011;3174;53.486;9.568;2022-12-18T01:01:21;11.50;;;5.87;;
6282;SDS011;3174;53.486;9.568;2022-12-18T01:03:50;10.70;;;6.07;;
6282;SDS011;3174;53.486;9.568;2022-12-18T01:06:18;10.73;;;5.50;;
6282;SDS011;3174;53.486;9.568;2022-12-18T01:08:47;11.73;;;6.60;;
6282;SDS011;3174;53.486;9.568;2022-12-18T01:11:16;12.07;;;5.27;;
6282;SDS011;3174;53.486;9.568;2022-12-18T01:13:45;13.23;;;6.07;;
6282;SDS011;3174;53.486;9.568;2022-12-18T01:16:13;10.00;;;5.33;;
6282;SDS011;3174;53.486;9.568;2022-12-18T01:18:43;11.10;;;5.90;;
6282;SDS011;3174;53.486;9.568;2022-12-18T01:21:12;11.53;;;5.90;;
6282;SDS011;3174;53.486;9.568;2022-12-18T01:23:41;10.63;;;5.13;;
6282;SDS011;3174;53.486;9.568;2022-12-18T01:26:11;9.60;;;5.47;;
6282;SDS011;3174;53.486;9.568;2022-12-18T01:28:41;12.10;;;5.50;;
6282;SDS011;3174;53.486;9.568;2022-12-18T01:31:13;9.43;;;4.40;;
6282;SDS011;3174;53.486;9.568;2022-12-18T01:33:43;9.57;;;5.57;;
6282;SDS011;3174;53.486;9.568;2022-12-18T01:36:14;8.83;;;5.10;;
6282;SDS011;3174;53.486;9.568;2022-12-18T01:38:43;7.50;;;3.97;;
6282;SDS011;3174;53.486;9.568;2022-12-18T01:41:14;11.17;;;5.73;;
6282;SDS011;3174;53.486;9.568;2022-12-18T01:43:44;9.50;;;5.43;;
6282;SDS011;3174;53.486;9.568;2022-12-18T01:46:13;11.50;;;5.23;;
6282;SDS011;3174;53.486;9.568;2022-12-18T01:48:41;13.50;;;5.73;;
6282;SDS011;3174;53.486;9.568;2022-12-18T01:51:10;9.43;;;4.97;;
6282;SDS011;3174;53.486;9.568;2022-12-18T01:53:40;10.17;;;5.10;;
6282;SDS011;3174;53.486;9.568;2022-12-18T01:56:11;9.53;;;5.67;;
6282;SDS011;3174;53.486;9.568;2022-12-18T01:58:44;10.30;;;5.70;;
6282;SDS011;3174;53.486;9.568;2022-12-18T02:01:17;8.63;;;5.27;;
6282;SDS011;3174;53.486;9.568;2022-12-18T02:03:46;8.57;;;4.70;;
6282;SDS011;3174;53.486;9.568;2022-12-18T02:06:15;16.70;;;5.57;;
6282;SDS011;3174;53.486;9.568;2022-12-18T02:08:47;7.53;;;4.10;;
6282;SDS011;3174;53.486;9.568;2022-12-18T02:11:20;7.70;;;4.87;;
6282;SDS011;3174;53.486;9.568;2022-12-18T02:13:53;7.40;;;4.10;;
6282;SDS011;3174;53.486;9.568;2022-12-18T02:16:25;7.70;;;4.30;;
6282;SDS011;3174;53.486;9.568;2022-12-18T02:18:59;14.97;;;5.83;;
6282;SDS011;3174;53.486;9.568;2022-12-18T02:21:31;9.53;;;4.87;;
6282;SDS011;3174;53.486;9.568;2022-12-18T02:24:04;14.37;;;5.43;;
6282;SDS011;3174;53.486;9.568;2022-12-18T02:26:43;8.37;;;4.27;;
6282;SDS011;3174;53.486;9.568;2022-12-18T02:29:13;5.47;;;3.57;;
6282;SDS011;3174;53.486;9.568;2022-12-18T02:31:48;5.83;;;3.90;;
6282;SDS011;3174;53.486;9.568;2022-12-18T02:34:19;9.30;;;5.00;;
6282;SDS011;3174;53.486;9.568;2022-12-18T02:36:50;12.50;;;4.70;;
6282;SDS011;3174;53.486;9.568;2022-12-18T02:39:21;8.17;;;4.87;;
6282;SDS011;3174;53.486;9.568;2022-12-18T02:41:51;11.93;;;5.23;;
6282;SDS011;3174;53.486;9.568;2022-12-18T02:44:19;11.27;;;5.47;;
6282;SDS011;3174;53.486;9.568;2022-12-18T02:46:48;14.13;;;5.30;;
6282;SDS011;3174;53.486;9.568;2022-12-18T02:49:21;7.00;;;4.93;;
6282;SDS011;3174;53.486;9.568;2022-12-18T02:51:55;9.10;;;5.70;;
6282;SDS011;3174;53.486;9.568;2022-12-18T02:54:34;7.73;;;4.73;;
6282;SDS011;3174;53.486;9.568;2022-12-18T02:57:08;15.00;;;4.73;;
6282;SDS011;3174;53.486;9.568;2022-12-18T02:59:43;8.50;;;4.67;;
6282;SDS011;3174;53.486;9.568;2022-12-18T03:02:19;9.17;;;4.87;;
6282;SDS011;3174;53.486;9.568;2022-12-18T03:04:50;11.53;;;5.50;;
6282;SDS011;3174;53.486;9.568;2022-12-18T03:10:09;7.80;;;3.43;;
6282;SDS011;3174;53.486;9.568;2022-12-18T03:12:41;8.73;;;4.27;;
6282;SDS011;3174;53.486;9.568;2022-12-18T03:15:13;8.90;;;4.73;;
6282;SDS011;3174;53.486;9.568;2022-12-18T03:17:44;11.70;;;5.10;;
6282;SDS011;3174;53.486;9.568;2022-12-18T03:20:15;12.30;;;4.93;;
6282;SDS011;3174;53.486;9.568;2022-12-18T03:22:46;10.13;;;4.53;;
6282;SDS011;3174;53.486;9.568;2022-12-18T03:25:19;5.53;;;4.27;;
6282;SDS011;3174;53.486;9.568;2022-12-18T03:27:49;8.17;;;4.30;;
6282;SDS011;3174;53.486;9.568;2022-12-18T03:30:18;8.40;;;3.60;;
6282;SDS011;3174;53.486;9.568;2022-12-18T03:32:47;10.60;;;5.07;;
6282;SDS011;3174;53.486;9.568;2022-12-18T03:35:24;10.60;;;4.77;;
6282;SDS011;3174;53.486;9.568;2022-12-18T03:37:55;8.77;;;4.70;;
6282;SDS011;3174;53.486;9.568;2022-12-18T03:40:25;8.67;;;5.30;;
6282;SDS011;3174;53.486;9.568;2022-12-18T03:42:58;9.90;;;4.87;;
6282;SDS011;3174;53.486;9.568;2022-12-18T03:45:31;9.03;;;4.50;;
6282;SDS011;3174;53.486;9.568;2022-12-18T03:48:03;11.07;;;5.00;;
6282;SDS011;3174;53.486;9.568;2022-12-18T03:50:36;6.77;;;4.13;;
6282;SDS011;3174;53.486;9.568;2022-12-18T03:53:08;10.67;;;4.87;;
6282;SDS011;3174;53.486;9.568;2022-12-18T03:55:41;9.27;;;4.10;;
6282;SDS011;3174;53.486;9.568;2022-12-18T03:58:12;10.73;;;4.77;;
6282;SDS011;3174;53.486;9.568;2022-12-18T04:00:41;9.07;;;4.73;;
6282;SDS011;3174;53.486;9.568;2022-12-18T04:03:09;9.80;;;4.97;;
6282;SDS011;3174;53.486;9.568;2022-12-18T04:05:38;8.63;;;4.67;;
6282;SDS011;3174;53.486;9.568;2022-12-18T04:08:06;6.87;;;3.77;;
6282;SDS011;3174;53.486;9.568;2022-12-18T04:10:35;8.07;;;4.70;;
6282;SDS011;3174;53.486;9.568;2022-12-18T04:13:03;7.23;;;4.03;;
6282;SDS011;3174;53.486;9.568;2022-12-18T04:15:32;10.57;;;5.10;;
6282;SDS011;3174;53.486;9.568;2022-12-18T04:18:02;8.10;;;4.33;;
6282;SDS011;3174;53.486;9.568;2022-12-18T04:20:30;9.70;;;5.03;;
6282;SDS011;3174;53.486;9.568;2022-12-18T04:22:59;8.20;;;4.40;;
6282;SDS011;3174;53.486;9.568;2022-12-18T04:25:27;12.97;;;4.87;;
6282;SDS011;3174;53.486;9.568;2022-12-18T04:27:55;5.67;;;3.83;;
6282;SDS011;3174;53.486;9.568;2022-12-18T04:30:22;12.13;;;5.37;;
6282;SDS011;3174;53.486;9.568;2022-12-18T04:32:52;8.43;;;5.17;;
6282;SDS011;3174;53.486;9.568;2022-12-18T04:35:20;6.00;;;3.70;;
6282;SDS011;3174;53.486;9.568;2022-12-18T04:37:48;8.63;;;3.87;;
6282;SDS011;3174;53.486;9.568;2022-12-18T04:40:16;6.87;;;3.90;;
6282;SDS011;3174;53.486;9.568;2022-12-18T04:42:44;12.07;;;5.27;;
6282;SDS011;3174;53.486;9.568;2022-12-18T04:45:12;8.33;;;3.77;;
6282;SDS011;3174;53.486;9.568;2022-12-18T04:47:40;8.30;;;4.70;;
6282;SDS011;3174;53.486;9.568;2022-12-18T04:50:10;7.30;;;4.23;;
6282;SDS011;3174;53.486;9.568;2022-12-18T04:52:38;8.93;;;4.07;;
6282;SDS011;3174;53.486;9.568;2022-12-18T04:55:06;9.73;;;4.97;;
6282;SDS011;3174;53.486;9.568;2022-12-18T04:57:34;14.33;;;4.73;;
6282;SDS011;3174;53.486;9.568;2022-12-18T05:00:03;10.03;;;4.63;;
6282;SDS011;3174;53.486;9.568;2022-12-18T05:02:32;8.10;;;4.47;;
6282;SDS011;3174;53.486;9.568;2022-12-18T05:05:00;7.97;;;4.57;;
6282;SDS011;3174;53.486;9.568;2022-12-18T05:07:29;7.73;;;4.37;;
6282;SDS011;3174;53.486;9.568;2022-12-18T05:09:58;8.30;;;4.60;;
6282;SDS011;3174;53.486;9.568;2022-12-18T05:12:25;6.63;;;4.20;;
6282;SDS011;3174;53.486;9.568;2022-12-18T05:14:53;7.70;;;4.73;;
6282;SDS011;3174;53.486;9.568;2022-12-18T05:17:21;8.70;;;4.77;;
6282;SDS011;3174;53.486;9.568;2022-12-18T05:19:49;7.70;;;4.23;;
6282;SDS011;3174;53.486;9.568;2022-12-18T05:22:17;9.20;;;4.97;;
6282;SDS011;3174;53.486;9.568;2022-12-18T05:24:47;6.33;;;4.50;;
6282;SDS011;3174;53.486;9.568;2022-12-18T05:27:15;8.17;;;5.40;;
6282;SDS011;3174;53.486;9.568;2022-12-18T05:29:44;11.23;;;5.47;;
6282;SDS011;3174;53.486;9.568;2022-12-18T05:32:11;8.17;;;5.23;;
6282;SDS011;3174;53.486;9.568;2022-12-18T05:34:39;7.43;;;3.47;;
6282;SDS011;3174;53.486;9.568;2022-12-18T05:37:07;12.17;;;4.83;;
6282;SDS011;3174;53.486;9.568;2022-12-18T05:39:35;5.00;;;3.77;;
6282;SDS011;3174;53.486;9.568;2022-12-18T05:42:05;9.87;;;4.70;;
6282;SDS011;3174;53.486;9.568;2022-12-18T05:44:33;7.23;;;4.60;;
6282;SDS011;3174;53.486;9.568;2022-12-18T05:47:00;9.07;;;4.57;;
6282;SDS011;3174;53.486;9.568;2022-12-18T05:49:28;9.07;;;4.63;;
6282;SDS011;3174;53.486;9.568;2022-12-18T05:51:56;7.70;;;4.27;;
6282;SDS011;3174;53.486;9.568;2022-12-18T05:54:26;7.50;;;3.20;;
6282;SDS011;3174;53.486;9.568;2022-12-18T05:56:54;8.33;;;4.23;;
6282;SDS011;3174;53.486;9.568;2022-12-18T05:59:23;10.67;;;4.87;;
6282;SDS011;3174;53.486;9.568;2022-12-18T06:01:52;7.80;;;4.97;;
6282;SDS011;3174;53.486;9.568;2022-12-18T06:04:20;8.87;;;4.83;;
6282;SDS011;3174;53.486;9.568;2022-12-18T06:06:48;5.50;;;3.57;;
6282;SDS011;3174;53.486;9.568;2022-12-18T06:09:16;8.97;;;4.67;;
6282;SDS011;3174;53.486;9.568;2022-12-18T06:11:44;7.60;;;3.97;;
6282;SDS011;3174;53.486;9.568;2022-12-18T06:14:11;5.87;;;3.47;;
6282;SDS011;3174;53.486;9.568;2022-12-18T06:16:41;6.57;;;4.10;;
6282;SDS011;3174;53.486;9.568;2022-12-18T06:19:12;5.53;;;3.20;;
6282;SDS011;3174;53.486;9.568;2022-12-18T06:21:42;11.57;;;4.27;;
6282;SDS011;3174;53.486;9.568;2022-12-18T06:24:10;8.40;;;4.33;;
6282;SDS011;3174;53.486;9.568;2022-12-18T06:26:38;10.20;;;4.37;;
6282;SDS011;3174;53.486;9.568;2022-12-18T06:29:06;5.47;;;3.93;;
6282;SDS011;3174;53.486;9.568;2022-12-18T06:31:34;6.23;;;4.13;;
6282;SDS011;3174;53.486;9.568;2022-12-18T06:34:04;5.50;;;3.57;;
6282;SDS011;3174;53.486;9.568;2022-12-18T06:36:32;8.93;;;3.97;;
6282;SDS011;3174;53.486;9.568;2022-12-18T06:39:00;7.87;;;4.37;;
6282;SDS011;3174;53.486;9.568;2022-12-18T06:41:28;6.67;;;4.47;;
6282;SDS011;3174;53.486;9.568;2022-12-18T06:43:57;4.93;;;3.60;;
6282;SDS011;3174;53.486;9.568;2022-12-18T06:46:25;7.17;;;3.43;;
6282;SDS011;3174;53.486;9.568;2022-12-18T06:48:53;6.77;;;3.93;;
6282;SDS011;3174;53.486;9.568;2022-12-18T06:51:23;10.50;;;5.37;;
6282;SDS011;3174;53.486;9.568;2022-12-18T06:53:51;8.13;;;3.57;;
6282;SDS011;3174;53.486;9.568;2022-12-18T06:56:20;7.77;;;3.83;;
6282;SDS011;3174;53.486;9.568;2022-12-18T06:58:48;11.00;;;4.47;;
6282;SDS011;3174;53.486;9.568;2022-12-18T07:01:16;6.33;;;3.50;;
6282;SDS011;3174;53.486;9.568;2022-12-18T07:03:44;9.57;;;3.63;;
6282;SDS011;3174;53.486;9.568;2022-12-18T07:06:15;12.67;;;4.13;;
6282;SDS011;3174;53.486;9.568;2022-12-18T07:08:49;8.40;;;3.80;;
6282;SDS011;3174;53.486;9.568;2022-12-18T07:11:17;9.33;;;4.83;;
6282;SDS011;3174;53.486;9.568;2022-12-18T07:13:46;7.07;;;4.17;;
6282;SDS011;3174;53.486;9.568;2022-12-18T07:16:15;8.40;;;4.13;;
6282;SDS011;3174;53.486;9.568;2022-12-18T07:18:50;5.50;;;3.60;;
6282;SDS011;3174;53.486;9.568;2022-12-18T07:21:19;10.33;;;4.43;;
6282;SDS011;3174;53.486;9.568;2022-12-18T07:23:48;9.97;;;3.57;;
6282;SDS011;3174;53.486;9.568;2022-12-18T07:26:18;14.70;;;5.10;;
6282;SDS011;3174;53.486;9.568;2022-12-18T07:28:46;9.03;;;4.07;;
6282;SDS011;3174;53.486;9.568;2022-12-18T07:31:15;6.30;;;4.37;;
6282;SDS011;3174;53.486;9.568;2022-12-18T07:33:44;8.73;;;4.83;;
6282;SDS011;3174;53.486;9.568;2022-12-18T07:36:13;5.57;;;3.57;;
6282;SDS011;3174;53.486;9.568;2022-12-18T07:38:41;7.47;;;3.93;;
6282;SDS011;3174;53.486;9.568;2022-12-18T07:41:11;8.60;;;4.67;;
6282;SDS011;3174;53.486;9.568;2022-12-18T07:43:40;8.10;;;3.90;;
6282;SDS011;3174;53.486;9.568;2022-12-18T07:46:10;4.93;;;3.27;;
6282;SDS011;3174;53.486;9.568;2022-12-18T07:48:40;6.63;;;3.40;;
6282;SDS011;3174;53.486;9.568;2022-12-18T07:51:11;9.77;;;4.37;;
6282;SDS011;3174;53.486;9.568;2022-12-18T07:53:38;9.00;;;4.03;;
6282;SDS011;3174;53.486;9.568;2022-12-18T07:56:08;8.10;;;3.97;;
6282;SDS011;3174;53.486;9.568;2022-12-18T07:58:54;10.93;;;4.20;;
6282;SDS011;3174;53.486;9.568;2022-12-18T08:01:22;9.70;;;4.70;;
6282;SDS011;3174;53.486;9.568;2022-12-18T08:03:51;8.50;;;4.63;;
6282;SDS011;3174;53.486;9.568;2022-12-18T08:06:19;10.00;;;4.40;;
6282;SDS011;3174;53.486;9.568;2022-12-18T08:08:50;9.73;;;5.47;;
6282;SDS011;3174;53.486;9.568;2022-12-18T08:11:18;6.97;;;4.40;;
6282;SDS011;3174;53.486;9.568;2022-12-18T08:13:47;12.47;;;4.40;;
6282;SDS011;3174;53.486;9.568;2022-12-18T08:16:16;5.53;;;3.40;;
6282;SDS011;3174;53.486;9.568;2022-12-18T08:18:45;8.53;;;4.83;;
6282;SDS011;3174;53.486;9.568;2022-12-18T08:21:15;9.20;;;4.07;;
6282;SDS011;3174;53.486;9.568;2022-12-18T08:23:46;6.57;;;3.97;;
6282;SDS011;3174;53.486;9.568;2022-12-18T08:26:16;8.70;;;5.20;;
6282;SDS011;3174;53.486;9.568;2022-12-18T08:28:46;9.20;;;3.93;;
6282;SDS011;3174;53.486;9.568;2022-12-18T08:31:16;7.93;;;4.30;;
6282;SDS011;3174;53.486;9.568;2022-12-18T08:33:47;10.70;;;3.93;;
6282;SDS011;3174;53.486;9.568;2022-12-18T08:36:15;8.13;;;4.13;;
6282;SDS011;3174;53.486;9.568;2022-12-18T08:38:43;10.17;;;5.10;;
6282;SDS011;3174;53.486;9.568;2022-12-18T08:41:12;9.37;;;4.50;;
6282;SDS011;3174;53.486;9.568;2022-12-18T08:43:41;6.57;;;3.90;;
6282;SDS011;3174;53.486;9.568;2022-12-18T08:46:31;8.73;;;5.00;;
6282;SDS011;3174;53.486;9.568;2022-12-18T08:49:00;8.80;;;4.60;;
6282;SDS011;3174;53.486;9.568;2022-12-18T08:51:29;7.77;;;4.43;;
6282;SDS011;3174;53.486;9.568;2022-12-18T08:53:57;9.30;;;5.07;;
6282;SDS011;3174;53.486;9.568;2022-12-18T08:56:25;10.90;;;4.27;;
6282;SDS011;3174;53.486;9.568;2022-12-18T08:58:53;8.00;;;4.03;;
6282;SDS011;3174;53.486;9.568;2022-12-18T09:01:22;4.43;;;3.83;;
6282;SDS011;3174;53.486;9.568;2022-12-18T09:03:51;8.10;;;4.13;;
6282;SDS011;3174;53.486;9.568;2022-12-18T09:06:20;7.87;;;4.37;;
6282;SDS011;3174;53.486;9.568;2022-12-18T09:08:49;8.30;;;3.90;;
6282;SDS011;3174;53.486;9.568;2022-12-18T09:11:19;4.93;;;3.20;;
6282;SDS011;3174;53.486;9.568;2022-12-18T09:13:48;8.20;;;4.40;;
6282;SDS011;3174;53.486;9.568;2022-12-18T09:16:16;9.00;;;4.30;;
6282;SDS011;3174;53.486;9.568;2022-12-18T09:18:44;7.13;;;4.27;;
6282;SDS011;3174;53.486;9.568;2022-12-18T09:21:14;8.10;;;5.33;;
6282;SDS011;3174;53.486;9.568;2022-12-18T09:23:43;9.07;;;4.20;;
6282;SDS011;3174;53.486;9.568;2022-12-18T09:26:11;8.40;;;4.27;;
6282;SDS011;3174;53.486;9.568;2022-12-18T09:28:39;10.60;;;4.57;;
6282;SDS011;3174;53.486;9.568;2022-12-18T09:31:08;9.93;;;4.43;;
6282;SDS011;3174;53.486;9.568;2022-12-18T09:33:38;13.07;;;6.00;;
6282;SDS011;3174;53.486;9.568;2022-12-18T09:36:08;12.33;;;5.47;;
6282;SDS011;3174;53.486;9.568;2022-12-18T09:38:38;14.33;;;5.83;;
6282;SDS011;3174;53.486;9.568;2022-12-18T09:41:14;7.70;;;4.70;;
6282;SDS011;3174;53.486;9.568;2022-12-18T09:43:48;6.70;;;4.37;;
6282;SDS011;3174;53.486;9.568;2022-12-18T09:46:19;11.93;;;3.60;;
6282;SDS011;3174;53.486;9.568;2022-12-18T09:48:54;9.10;;;4.70;;
6282;SDS011;3174;53.486;9.568;2022-12-18T09:51:24;7.87;;;4.73;;
6282;SDS011;3174;53.486;9.568;2022-12-18T09:53:55;9.07;;;4.63;;
6282;SDS011;3174;53.486;9.568;2022-12-18T09:56:25;7.63;;;4.53;;
6282;SDS011;3174;53.486;9.568;2022-12-18T09:58:57;9.43;;;4.33;;
6282;SDS011;3174;53.486;9.568;2022-12-18T10:01:26;8.50;;;4.37;;
6282;SDS011;3174;53.486;9.568;2022-12-18T10:04:08;10.97;;;4.23;;
6282;SDS011;3174;53.486;9.568;2022-12-18T10:06:38;5.23;;;3.80;;
6282;SDS011;3174;53.486;9.568;2022-12-18T10:09:13;12.23;;;4.43;;
6282;SDS011;3174;53.486;9.568;2022-12-18T10:11:48;8.40;;;3.47;;
6282;SDS011;3174;53.486;9.568;2022-12-18T10:14:22;9.43;;;5.33;;
6282;SDS011;3174;53.486;9.568;2022-12-18T10:16:57;8.63;;;4.40;;
6282;SDS011;3174;53.486;9.568;2022-12-18T10:19:32;7.43;;;3.83;;
6282;SDS011;3174;53.486;9.568;2022-12-18T10:22:08;12.40;;;4.03;;
6282;SDS011;3174;53.486;9.568;2022-12-18T10:24:42;6.97;;;4.37;;
6282;SDS011;3174;53.486;9.568;2022-12-18T10:27:14;10.37;;;3.67;;
6282;SDS011;3174;53.486;9.568;2022-12-18T10:29:43;7.80;;;4.33;;
6282;SDS011;3174;53.486;9.568;2022-12-18T10:32:13;8.63;;;4.57;;
6282;SDS011;3174;53.486;9.568;2022-12-18T10:34:45;10.63;;;4.80;;
6282;SDS011;3174;53.486;9.568;2022-12-18T10:37:15;8.70;;;4.40;;
6282;SDS011;3174;53.486;9.568;2022-12-18T10:39:47;7.83;;;4.60;;
6282;SDS011;3174;53.486;9.568;2022-12-18T10:42:34;9.53;;;5.27;;
6282;SDS011;3174;53.486;9.568;2022-12-18T10:45:03;8.13;;;3.87;;
6282;SDS011;3174;53.486;9.568;2022-12-18T10:47:35;11.77;;;5.63;;
6282;SDS011;3174;53.486;9.568;2022-12-18T10:50:03;12.77;;;4.90;;
6282;SDS011;3174;53.486;9.568;2022-12-18T10:52:32;7.07;;;4.33;;
6282;SDS011;3174;53.486;9.568;2022-12-18T10:55:02;8.87;;;4.03;;
6282;SDS011;3174;53.486;9.568;2022-12-18T10:57:33;7.07;;;4.27;;
6282;SDS011;3174;53.486;9.568;2022-12-18T11:02:52;8.67;;;4.67;;
6282;SDS011;3174;53.486;9.568;2022-12-18T11:05:25;7.83;;;4.40;;
6282;SDS011;3174;53.486;9.568;2022-12-18T11:07:55;7.50;;;3.77;;
6282;SDS011;3174;53.486;9.568;2022-12-18T11:10:28;8.27;;;3.97;;
6282;SDS011;3174;53.486;9.568;2022-12-18T11:13:08;9.27;;;4.37;;
6282;SDS011;3174;53.486;9.568;2022-12-18T11:15:40;9.80;;;4.63;;
6282;SDS011;3174;53.486;9.568;2022-12-18T11:18:14;7.40;;;4.13;;
6282;SDS011;3174;53.486;9.568;2022-12-18T11:20:49;8.27;;;4.23;;
6282;SDS011;3174;53.486;9.568;2022-12-18T11:23:23;7.80;;;4.00;;
6282;SDS011;3174;53.486;9.568;2022-12-18T11:25:57;8.60;;;4.63;;
6282;SDS011;3174;53.486;9.568;2022-12-18T11:28:29;6.57;;;3.63;;
6282;SDS011;3174;53.486;9.568;2022-12-18T11:31:12;7.83;;;3.70;;
6282;SDS011;3174;53.486;9.568;2022-12-18T11:33:53;6.63;;;4.07;;
6282;SDS011;3174;53.486;9.568;2022-12-18T11:36:47;7.43;;;3.77;;
6282;SDS011;3174;53.486;9.568;2022-12-18T11:39:16;6.63;;;3.90;;
6282;SDS011;3174;53.486;9.568;2022-12-18T11:41:50;6.17;;;3.20;;
6282;SDS011;3174;53.486;9.568;2022-12-18T11:44:41;8.90;;;3.80;;
6282;SDS011;3174;53.486;9.568;2022-12-18T11:47:14;4.97;;;2.67;;
6282;SDS011;3174;53.486;9.568;2022-12-18T11:49:47;6.47;;;3.87;;
6282;SDS011;3174;53.486;9.568;2022-12-18T11:52:18;7.33;;;4.47;;
6282;SDS011;3174;53.486;9.568;2022-12-18T11:54:50;5.33;;;3.57;;
6282;SDS011;3174;53.486;9.568;2022-12-18T11:57:24;8.30;;;4.10;;
6282;SDS011;3174;53.486;9.568;2022-12-18T12:00:01;7.43;;;3.73;;
6282;SDS011;3174;53.486;9.568;2022-12-18T12:02:40;6.93;;;3.83;;
6282;SDS011;3174;53.486;9.568;2022-12-18T12:05:18;6.10;;;3.63;;
6282;SDS011;3174;53.486;9.568;2022-12-18T12:07:53;6.03;;;3.33;;
6282;SDS011;3174;53.486;9.568;2022-12-18T12:10:26;6.13;;;3.50;;
6282;SDS011;3174;53.486;9.568;2022-12-18T12:13:05;5.90;;;3.40;;
6282;SDS011;3174;53.486;9.568;2022-12-18T12:15:41;5.07;;;2.93;;
6282;SDS011;3174;53.486;9.568;2022-12-18T12:18:18;7.87;;;3.87;;
6282;SDS011;3174;53.486;9.568;2022-12-18T12:20:53;7.53;;;3.90;;
6282;SDS011;3174;53.486;9.568;2022-12-18T12:23:28;7.07;;;3.57;;
6282;SDS011;3174;53.486;9.568;2022-12-18T12:26:01;5.87;;;3.67;;
6282;SDS011;3174;53.486;9.568;2022-12-18T12:28:40;5.10;;;3.10;;
6282;SDS011;3174;53.486;9.568;2022-12-18T12:31:50;6.97;;;3.97;;
6282;SDS011;3174;53.486;9.568;2022-12-18T12:34:26;6.37;;;3.23;;
6282;SDS011;3174;53.486;9.568;2022-12-18T12:37:01;5.53;;;3.93;;
6282;SDS011;3174;53.486;9.568;2022-12-18T12:39:37;6.50;;;3.30;;
6282;SDS011;3174;53.486;9.568;2022-12-18T12:42:06;5.87;;;3.70;;
6282;SDS011;3174;53.486;9.568;2022-12-18T12:44:58;6.57;;;3.77;;
6282;SDS011;3174;53.486;9.568;2022-12-18T12:47:30;6.03;;;2.70;;
6282;SDS011;3174;53.486;9.568;2022-12-18T12:50:01;9.57;;;4.33;;
6282;SDS011;3174;53.486;9.568;2022-12-18T12:52:34;5.93;;;3.47;;
6282;SDS011;3174;53.486;9.568;2022-12-18T12:55:05;5.30;;;3.50;;
6282;SDS011;3174;53.486;9.568;2022-12-18T12:57:41;7.83;;;3.63;;
6282;SDS011;3174;53.486;9.568;2022-12-18T13:00:15;8.17;;;4.00;;
6282;SDS011;3174;53.486;9.568;2022-12-18T13:02:47;9.40;;;4.47;;
6282;SDS011;3174;53.486;9.568;2022-12-18T13:05:21;13.53;;;5.33;;
6282;SDS011;3174;53.486;9.568;2022-12-18T13:07:53;8.57;;;5.43;;
6282;SDS011;3174;53.486;9.568;2022-12-18T13:10:25;5.80;;;3.60;;
6282;SDS011;3174;53.486;9.568;2022-12-18T13:12:58;8.63;;;3.47;;
6282;SDS011;3174;53.486;9.568;2022-12-18T13:15:33;7.63;;;3.67;;
6282;SDS011;3174;53.486;9.568;2022-12-18T13:18:09;8.37;;;4.27;;
6282;SDS011;3174;53.486;9.568;2022-12-18T13:20:40;11.93;;;3.63;;
6282;SDS011;3174;53.486;9.568;2022-12-18T13:23:26;6.30;;;3.67;;
6282;SDS011;3174;53.486;9.568;2022-12-18T13:25:56;7.77;;;3.37;;
6282;SDS011;3174;53.486;9.568;2022-12-18T13:28:49;5.90;;;3.20;;
6282;SDS011;3174;53.486;9.568;2022-12-18T13:34:36;8.20;;;3.67;;
6282;SDS011;3174;53.486;9.568;2022-12-18T13:43:30;6.97;;;3.77;;
6282;SDS011;3174;53.486;9.568;2022-12-18T13:46:01;12.03;;;3.87;;
6282;SDS011;3174;53.486;9.568;2022-12-18T13:48:34;9.07;;;3.90;;
6282;SDS011;3174;53.486;9.568;2022-12-18T13:51:05;6.03;;;3.40;;
6282;SDS011;3174;53.486;9.568;2022-12-18T13:53:36;10.07;;;3.90;;
6282;SDS011;3174;53.486;9.568;2022-12-18T13:56:07;5.37;;;3.20;;
6282;SDS011;3174;53.486;9.568;2022-12-18T13:58:35;5.30;;;3.07;;
6282;SDS011;3174;53.486;9.568;2022-12-18T14:01:03;4.27;;;2.87;;
6282;SDS011;3174;53.486;9.568;2022-12-18T14:03:33;3.90;;;2.27;;
6282;SDS011;3174;53.486;9.568;2022-12-18T14:06:02;5.13;;;2.90;;
6282;SDS011;3174;53.486;9.568;2022-12-18T14:08:35;5.30;;;2.43;;
6282;SDS011;3174;53.486;9.568;2022-12-18T14:11:06;5.03;;;2.90;;
6282;SDS011;3174;53.486;9.568;2022-12-18T14:13:37;5.40;;;2.90;;
6282;SDS011;3174;53.486;9.568;2022-12-18T14:16:11;5.10;;;2.90;;
6282;SDS011;3174;53.486;9.568;2022-12-18T14:18:42;6.60;;;3.10;;
6282;SDS011;3174;53.486;9.568;2022-12-18T14:21:20;5.80;;;3.27;;
6282;SDS011;3174;53.486;9.568;2022-12-18T14:23:49;5.93;;;2.73;;
6282;SDS011;3174;53.486;9.568;2022-12-18T14:26:31;3.90;;;2.57;;
6282;SDS011;3174;53.486;9.568;2022-12-18T14:29:00;4.57;;;2.50;;
6282;SDS011;3174;53.486;9.568;2022-12-18T14:31:30;8.93;;;2.50;;
6282;SDS011;3174;53.486;9.568;2022-12-18T14:33:58;4.87;;;2.10;;
6282;SDS011;3174;53.486;9.568;2022-12-18T14:36:28;4.33;;;2.20;;
6282;SDS011;3174;53.486;9.568;2022-12-18T14:38:57;4.53;;;2.57;;
6282;SDS011;3174;53.486;9.568;2022-12-18T14:41:25;4.87;;;2.57;;
6282;SDS011;3174;53.486;9.568;2022-12-18T14:43:54;5.60;;;2.87;;
6282;SDS011;3174;53.486;9.568;2022-12-18T14:46:26;5.40;;;2.80;;
6282;SDS011;3174;53.486;9.568;2022-12-18T14:48:56;4.47;;;2.37;;
6282;SDS011;3174;53.486;9.568;2022-12-18T14:51:25;3.63;;;2.20;;
6282;SDS011;3174;53.486;9.568;2022-12-18T14:53:55;5.93;;;2.53;;
6282;SDS011;3174;53.486;9.568;2022-12-18T14:56:24;3.23;;;2.10;;
6282;SDS011;3174;53.486;9.568;2022-12-18T14:58:53;4.40;;;2.30;;
6282;SDS011;3174;53.486;9.568;2022-12-18T15:01:23;4.57;;;2.43;;
6282;SDS011;3174;53.486;9.568;2022-12-18T15:03:54;6.17;;;2.40;;
6282;SDS011;3174;53.486;9.568;2022-12-18T15:06:26;4.10;;;2.10;;
6282;SDS011;3174;53.486;9.568;2022-12-18T15:08:58;8.57;;;2.50;;
6282;SDS011;3174;53.486;9.568;2022-12-18T15:11:27;5.70;;;3.03;;
6282;SDS011;3174;53.486;9.568;2022-12-18T15:13:58;4.23;;;2.73;;
6282;SDS011;3174;53.486;9.568;2022-12-18T15:16:26;4.30;;;2.90;;
6282;SDS011;3174;53.486;9.568;2022-12-18T15:18:54;5.47;;;2.90;;
6282;SDS011;3174;53.486;9.568;2022-12-18T15:21:22;4.23;;;2.53;;
6282;SDS011;3174;53.486;9.568;2022-12-18T15:23:51;5.37;;;2.47;;
6282;SDS011;3174;53.486;9.568;2022-12-18T15:26:21;5.37;;;2.37;;
6282;SDS011;3174;53.486;9.568;2022-12-18T15:28:49;6.07;;;3.37;;
6282;SDS011;3174;53.486;9.568;2022-12-18T15:31:22;3.63;;;2.70;;
6282;SDS011;3174;53.486;9.568;2022-12-18T15:34:11;5.37;;;2.90;;
6282;SDS011;3174;53.486;9.568;2022-12-18T15:36:40;2.97;;;2.57;;
6282;SDS011;3174;53.486;9.568;2022-12-18T15:39:10;6.07;;;3.30;;
6282;SDS011;3174;53.486;9.568;2022-12-18T15:41:40;8.00;;;3.13;;
6282;SDS011;3174;53.486;9.568;2022-12-18T15:44:28;7.13;;;3.33;;
6282;SDS011;3174;53.486;9.568;2022-12-18T15:46:55;8.60;;;3.47;;
6282;SDS011;3174;53.486;9.568;2022-12-18T15:49:22;8.17;;;3.50;;
6282;SDS011;3174;53.486;9.568;2022-12-18T15:51:51;7.30;;;3.23;;